sensor_id;sensor_type;location;lat;lon;timestamp;temperature;humidity
59857;DHT22;45733;52.668;6.860;2023-04-02T00:01:49;5.90;99.90
59857;DHT22;45733;52.668;6.860;2023-04-02T00:04:24;5.90;99.90
59857;DHT22;45733;52.668;6.860;2023-04-02T00:07:43;5.90;99.90
59857;DHT22;45733;52.668;6.860;2023-04-02T00:10:04;5.90;99.90
59857;DHT22;45733;52.668;6.860;2023-04-02T00:12:29;5.80;99.90
59857;DHT22;45733;52.668;6.860;2023-04-02T00:14:55;5.80;99.90
59857;DHT22;45733;52.668;6.860;2023-04-02T00:17:23;5.80;99.90
59857;DHT22;45733;52.668;6.860;2023-04-02T00:20:04;5.70;99.90
59857;DHT22;45733;52.668;6.860;2023-04-02T00:22:31;5.70;99.90
59857;DHT22;45733;52.668;6.860;2023-04-02T00:25:01;5.60;99.90
59857;DHT22;45733;52.668;6.860;2023-04-02T00:27:30;5.60;99.90
59857;DHT22;45733;52.668;6.860;2023-04-02T00:29:58;5.60;99.90
59857;DHT22;45733;52.668;6.860;2023-04-02T00:32:30;5.60;99.90
59857;DHT22;45733;52.668;6.860;2023-04-02T00:34:58;5.60;99.90
59857;DHT22;45733;52.668;6.860;2023-04-02T00:37:27;5.50;99.90
59857;DHT22;45733;52.668;6.860;2023-04-02T00:40:00;5.50;99.90
59857;DHT22;45733;52.668;6.860;2023-04-02T00:42:29;5.50;99.90
59857;DHT22;45733;52.668;6.860;2023-04-02T00:44:56;5.50;99.90
59857;DHT22;45733;52.668;6.860;2023-04-02T00:47:42;5.50;99.90
59857;DHT22;45733;52.668;6.860;2023-04-02T00:52:37;5.50;99.90
59857;DHT22;45733;52.668;6.860;2023-04-02T00:55:16;5.40;99.90
59857;DHT22;45733;52.668;6.860;2023-04-02T00:57:44;5.40;99.90
59857;DHT22;45733;52.668;6.860;2023-04-02T01:00:20;5.30;99.90
59857;DHT22;45733;52.668;6.860;2023-04-02T01:05:42;5.20;99.90
59857;DHT22;45733;52.668;6.860;2023-04-02T01:08:30;5.10;99.90
59857;DHT22;45733;52.668;6.860;2023-04-02T01:24:58;4.90;99.90
59857;DHT22;45733;52.668;6.860;2023-04-02T01:27:28;4.80;99.90
59857;DHT22;45733;52.668;6.860;2023-04-02T01:29:59;4.80;99.90
59857;DHT22;45733;52.668;6.860;2023-04-02T01:32:27;4.70;99.90
59857;DHT22;45733;52.668;6.860;2023-04-02T01:34:54;4.70;99.90
59857;DHT22;45733;52.668;6.860;2023-04-02T01:40:32;4.70;99.90
59857;DHT22;45733;52.668;6.860;2023-04-02T01:43:02;4.50;99.90
59857;DHT22;45733;52.668;6.860;2023-04-02T01:45:31;4.60;99.90
59857;DHT22;45733;52.668;6.860;2023-04-02T01:48:11;4.60;99.90
59857;DHT22;45733;52.668;6.860;2023-04-02T01:50:39;4.50;99.90
59857;DHT22;45733;52.668;6.860;2023-04-02T01:53:09;4.60;99.90
59857;DHT22;45733;52.668;6.860;2023-04-02T01:55:43;4.50;99.90
59857;DHT22;45733;52.668;6.860;2023-04-02T01:58:12;4.40;99.90
59857;DHT22;45733;52.668;6.860;2023-04-02T02:01:07;4.30;99.90
59857;DHT22;45733;52.668;6.860;2023-04-02T02:03:38;4.20;99.90
59857;DHT22;45733;52.668;6.860;2023-04-02T02:06:05;4.20;99.90
59857;DHT22;45733;52.668;6.860;2023-04-02T02:08:39;4.10;99.90
59857;DHT22;45733;52.668;6.860;2023-04-02T02:11:14;4.20;99.90
59857;DHT22;45733;52.668;6.860;2023-04-02T02:13:45;4.10;99.90
59857;DHT22;45733;52.668;6.860;2023-04-02T02:16:15;4.10;99.90
59857;DHT22;45733;52.668;6.860;2023-04-02T02:18:45;4.00;99.90
59857;DHT22;45733;52.668;6.860;2023-04-02T02:21:40;4.00;99.90
59857;DHT22;45733;52.668;6.860;2023-04-02T02:24:06;3.90;99.90
59857;DHT22;45733;52.668;6.860;2023-04-02T02:26:36;3.80;99.90
59857;DHT22;45733;52.668;6.860;2023-04-02T02:29:06;3.80;99.90
59857;DHT22;45733;52.668;6.860;2023-04-02T02:31:33;3.80;99.90
59857;DHT22;45733;52.668;6.860;2023-04-02T02:34:05;3.70;99.90
59857;DHT22;45733;52.668;6.860;2023-04-02T02:36:48;3.70;99.90
59857;DHT22;45733;52.668;6.860;2023-04-02T02:39:21;3.70;99.90
59857;DHT22;45733;52.668;6.860;2023-04-02T02:41:56;3.60;99.90
59857;DHT22;45733;52.668;6.860;2023-04-02T02:44:28;3.60;99.90
59857;DHT22;45733;52.668;6.860;2023-04-02T02:47:00;3.40;99.90
59857;DHT22;45733;52.668;6.860;2023-04-02T02:49:30;3.40;99.90
59857;DHT22;45733;52.668;6.860;2023-04-02T02:54:40;3.20;99.90
59857;DHT22;45733;52.668;6.860;2023-04-02T02:57:11;3.20;99.90
59857;DHT22;45733;52.668;6.860;2023-04-02T02:59:38;3.10;99.90
59857;DHT22;45733;52.668;6.860;2023-04-02T03:02:04;3.20;99.90
59857;DHT22;45733;52.668;6.860;2023-04-02T03:04:32;3.10;99.90
59857;DHT22;45733;52.668;6.860;2023-04-02T03:07:01;3.10;99.90
59857;DHT22;45733;52.668;6.860;2023-04-02T03:15:05;3.00;99.90
59857;DHT22;45733;52.668;6.860;2023-04-02T03:17:45;2.90;99.90
59857;DHT22;45733;52.668;6.860;2023-04-02T03:28:37;2.60;99.90
59857;DHT22;45733;52.668;6.860;2023-04-02T03:31:27;2.50;99.90
59857;DHT22;45733;52.668;6.860;2023-04-02T03:34:03;2.50;99.90
59857;DHT22;45733;52.668;6.860;2023-04-02T03:37:33;2.50;99.90
59857;DHT22;45733;52.668;6.860;2023-04-02T03:42:06;2.40;99.90
59857;DHT22;45733;52.668;6.860;2023-04-02T03:49:55;2.30;99.90
59857;DHT22;45733;52.668;6.860;2023-04-02T03:52:26;2.40;99.90
59857;DHT22;45733;52.668;6.860;2023-04-02T03:54:58;2.40;99.90
59857;DHT22;45733;52.668;6.860;2023-04-02T03:57:46;2.40;99.90
59857;DHT22;45733;52.668;6.860;2023-04-02T04:00:23;2.50;99.90
59857;DHT22;45733;52.668;6.860;2023-04-02T04:02:59;2.40;99.90
59857;DHT22;45733;52.668;6.860;2023-04-02T04:05:34;2.50;99.90
59857;DHT22;45733;52.668;6.860;2023-04-02T04:08:04;2.40;99.90
59857;DHT22;45733;52.668;6.860;2023-04-02T04:10:31;2.50;99.90
59857;DHT22;45733;52.668;6.860;2023-04-02T04:13:19;2.60;99.90
59857;DHT22;45733;52.668;6.860;2023-04-02T04:15:49;2.50;99.90
59857;DHT22;45733;52.668;6.860;2023-04-02T04:18:31;2.50;99.90
59857;DHT22;45733;52.668;6.860;2023-04-02T04:21:19;2.50;99.90
59857;DHT22;45733;52.668;6.860;2023-04-02T04:23:55;2.60;99.90
59857;DHT22;45733;52.668;6.860;2023-04-02T04:32:21;2.60;99.90
59857;DHT22;45733;52.668;6.860;2023-04-02T04:35:06;2.60;99.90
59857;DHT22;45733;52.668;6.860;2023-04-02T04:37:40;2.60;99.90
59857;DHT22;45733;52.668;6.860;2023-04-02T04:40:15;2.60;99.90
59857;DHT22;45733;52.668;6.860;2023-04-02T04:42:42;2.60;99.90
59857;DHT22;45733;52.668;6.860;2023-04-02T04:48:03;2.50;99.90
59857;DHT22;45733;52.668;6.860;2023-04-02T04:50:59;2.50;99.90
59857;DHT22;45733;52.668;6.860;2023-04-02T04:53:28;2.50;99.90
59857;DHT22;45733;52.668;6.860;2023-04-02T04:55:56;2.50;99.90
59857;DHT22;45733;52.668;6.860;2023-04-02T04:58:49;2.50;99.90
59857;DHT22;45733;52.668;6.860;2023-04-02T05:01:40;2.50;99.90
59857;DHT22;45733;52.668;6.860;2023-04-02T05:04:13;2.50;99.90
59857;DHT22;45733;52.668;6.860;2023-04-02T05:06:54;2.50;99.90
59857;DHT22;45733;52.668;6.860;2023-04-02T05:14:41;2.40;99.90
59857;DHT22;45733;52.668;6.860;2023-04-02T05:17:31;2.40;99.90
59857;DHT22;45733;52.668;6.860;2023-04-02T05:26:02;2.40;99.90
59857;DHT22;45733;52.668;6.860;2023-04-02T05:28:42;2.40;99.90
59857;DHT22;45733;52.668;6.860;2023-04-02T05:31:13;2.40;99.90
59857;DHT22;45733;52.668;6.860;2023-04-02T05:33:45;2.40;99.90
59857;DHT22;45733;52.668;6.860;2023-04-02T05:36:18;2.40;99.90
59857;DHT22;45733;52.668;6.860;2023-04-02T05:38:46;2.40;99.90
59857;DHT22;45733;52.668;6.860;2023-04-02T05:41:28;2.40;99.90
59857;DHT22;45733;52.668;6.860;2023-04-02T05:44:25;2.40;99.90
59857;DHT22;45733;52.668;6.860;2023-04-02T05:47:03;2.40;99.90
59857;DHT22;45733;52.668;6.860;2023-04-02T05:49:40;2.50;99.90
59857;DHT22;45733;52.668;6.860;2023-04-02T05:52:16;2.50;99.90
59857;DHT22;45733;52.668;6.860;2023-04-02T05:55:22;2.50;99.90
59857;DHT22;45733;52.668;6.860;2023-04-02T05:57:56;2.60;99.90
59857;DHT22;45733;52.668;6.860;2023-04-02T06:00:42;2.50;99.90
59857;DHT22;45733;52.668;6.860;2023-04-02T06:03:40;2.50;99.90
59857;DHT22;45733;52.668;6.860;2023-04-02T06:06:16;2.60;99.90
59857;DHT22;45733;52.668;6.860;2023-04-02T06:08:54;2.70;99.90
59857;DHT22;45733;52.668;6.860;2023-04-02T06:11:37;2.70;99.90
59857;DHT22;45733;52.668;6.860;2023-04-02T06:14:10;2.70;99.90
59857;DHT22;45733;52.668;6.860;2023-04-02T06:16:36;2.80;99.90
59857;DHT22;45733;52.668;6.860;2023-04-02T06:19:07;2.70;99.90
59857;DHT22;45733;52.668;6.860;2023-04-02T06:21:45;2.80;99.90
59857;DHT22;45733;52.668;6.860;2023-04-02T06:24:17;2.80;99.90
59857;DHT22;45733;52.668;6.860;2023-04-02T06:26:52;2.80;99.90
59857;DHT22;45733;52.668;6.860;2023-04-02T06:29:33;2.80;99.90
59857;DHT22;45733;52.668;6.860;2023-04-02T06:32:06;2.90;99.90
59857;DHT22;45733;52.668;6.860;2023-04-02T06:34:35;2.90;99.90
59857;DHT22;45733;52.668;6.860;2023-04-02T06:37:34;3.00;99.90
59857;DHT22;45733;52.668;6.860;2023-04-02T06:40:03;3.00;99.90
59857;DHT22;45733;52.668;6.860;2023-04-02T06:42:33;3.00;99.90
59857;DHT22;45733;52.668;6.860;2023-04-02T06:44:59;3.00;99.90
59857;DHT22;45733;52.668;6.860;2023-04-02T06:47:35;3.20;99.90
59857;DHT22;45733;52.668;6.860;2023-04-02T06:50:13;3.20;99.90
59857;DHT22;45733;52.668;6.860;2023-04-02T06:52:45;3.20;99.90
59857;DHT22;45733;52.668;6.860;2023-04-02T06:55:33;3.10;99.90
59857;DHT22;45733;52.668;6.860;2023-04-02T06:58:02;3.00;99.90
59857;DHT22;45733;52.668;6.860;2023-04-02T07:00:43;3.20;99.90
59857;DHT22;45733;52.668;6.860;2023-04-02T07:03:16;3.20;99.90
59857;DHT22;45733;52.668;6.860;2023-04-02T07:05:45;3.20;99.90
59857;DHT22;45733;52.668;6.860;2023-04-02T07:08:10;3.40;99.90
59857;DHT22;45733;52.668;6.860;2023-04-02T07:10:36;3.80;99.90
59857;DHT22;45733;52.668;6.860;2023-04-02T07:13:02;3.60;99.90
59857;DHT22;45733;52.668;6.860;2023-04-02T07:15:28;3.60;99.90
59857;DHT22;45733;52.668;6.860;2023-04-02T07:17:54;3.50;99.90
59857;DHT22;45733;52.668;6.860;2023-04-02T07:20:34;3.60;99.90
59857;DHT22;45733;52.668;6.860;2023-04-02T07:23:03;3.30;99.90
59857;DHT22;45733;52.668;6.860;2023-04-02T07:25:29;3.30;99.90
59857;DHT22;45733;52.668;6.860;2023-04-02T07:27:55;3.30;99.90
59857;DHT22;45733;52.668;6.860;2023-04-02T07:30:21;3.50;99.90
59857;DHT22;45733;52.668;6.860;2023-04-02T07:32:48;4.10;99.90
59857;DHT22;45733;52.668;6.860;2023-04-02T07:35:13;4.40;99.90
59857;DHT22;45733;52.668;6.860;2023-04-02T07:37:39;4.60;99.90
59857;DHT22;45733;52.668;6.860;2023-04-02T07:40:07;4.50;99.90
59857;DHT22;45733;52.668;6.860;2023-04-02T07:42:36;4.30;99.90
59857;DHT22;45733;52.668;6.860;2023-04-02T07:45:02;4.10;99.90
59857;DHT22;45733;52.668;6.860;2023-04-02T07:47:28;4.40;99.90
59857;DHT22;45733;52.668;6.860;2023-04-02T07:49:54;4.40;99.90
59857;DHT22;45733;52.668;6.860;2023-04-02T07:52:19;4.60;99.90
59857;DHT22;45733;52.668;6.860;2023-04-02T07:54:46;4.60;99.90
59857;DHT22;45733;52.668;6.860;2023-04-02T07:57:12;4.80;99.90
59857;DHT22;45733;52.668;6.860;2023-04-02T07:59:37;5.30;99.90
59857;DHT22;45733;52.668;6.860;2023-04-02T08:02:03;5.60;99.90
59857;DHT22;45733;52.668;6.860;2023-04-02T08:04:29;5.20;99.90
59857;DHT22;45733;52.668;6.860;2023-04-02T08:06:55;4.50;99.90
59857;DHT22;45733;52.668;6.860;2023-04-02T08:09:20;4.50;99.90
59857;DHT22;45733;52.668;6.860;2023-04-02T08:11:46;4.20;99.90
59857;DHT22;45733;52.668;6.860;2023-04-02T08:14:12;4.30;99.90
59857;DHT22;45733;52.668;6.860;2023-04-02T08:16:52;5.10;99.90
59857;DHT22;45733;52.668;6.860;2023-04-02T08:19:18;4.60;99.90
59857;DHT22;45733;52.668;6.860;2023-04-02T08:21:45;4.30;99.90
59857;DHT22;45733;52.668;6.860;2023-04-02T08:24:12;4.00;99.90
59857;DHT22;45733;52.668;6.860;2023-04-02T08:26:38;4.20;99.90
59857;DHT22;45733;52.668;6.860;2023-04-02T08:29:03;4.40;99.90
59857;DHT22;45733;52.668;6.860;2023-04-02T08:31:29;4.90;99.90
59857;DHT22;45733;52.668;6.860;2023-04-02T08:33:55;4.80;99.90
59857;DHT22;45733;52.668;6.860;2023-04-02T08:36:28;4.80;99.90
59857;DHT22;45733;52.668;6.860;2023-04-02T08:38:54;4.70;99.90
59857;DHT22;45733;52.668;6.860;2023-04-02T08:41:25;4.40;99.90
59857;DHT22;45733;52.668;6.860;2023-04-02T08:44:02;4.30;99.90
59857;DHT22;45733;52.668;6.860;2023-04-02T08:46:54;4.40;99.90
59857;DHT22;45733;52.668;6.860;2023-04-02T08:49:43;4.70;99.90
59857;DHT22;45733;52.668;6.860;2023-04-02T08:52:42;4.60;99.90
59857;DHT22;45733;52.668;6.860;2023-04-02T08:55:17;5.10;99.90
59857;DHT22;45733;52.668;6.860;2023-04-02T09:00:56;5.70;99.90
59857;DHT22;45733;52.668;6.860;2023-04-02T09:03:29;5.80;99.90
59857;DHT22;45733;52.668;6.860;2023-04-02T09:05:58;5.80;99.90
59857;DHT22;45733;52.668;6.860;2023-04-02T09:08:26;6.10;99.90
59857;DHT22;45733;52.668;6.860;2023-04-02T09:13:29;5.40;99.90
59857;DHT22;45733;52.668;6.860;2023-04-02T09:16:15;5.70;99.90
59857;DHT22;45733;52.668;6.860;2023-04-02T09:18:43;5.60;99.90
59857;DHT22;45733;52.668;6.860;2023-04-02T09:23:48;6.10;99.90
59857;DHT22;45733;52.668;6.860;2023-04-02T09:26:21;6.00;99.90
59857;DHT22;45733;52.668;6.860;2023-04-02T09:28:49;6.80;99.90
59857;DHT22;45733;52.668;6.860;2023-04-02T09:31:26;6.50;99.90
59857;DHT22;45733;52.668;6.860;2023-04-02T09:33:53;6.90;99.90
59857;DHT22;45733;52.668;6.860;2023-04-02T09:36:52;6.90;99.90
59857;DHT22;45733;52.668;6.860;2023-04-02T09:39:20;7.30;99.90
59857;DHT22;45733;52.668;6.860;2023-04-02T09:41:46;6.80;99.90
59857;DHT22;45733;52.668;6.860;2023-04-02T09:46:47;7.60;99.90
59857;DHT22;45733;52.668;6.860;2023-04-02T09:49:15;8.30;99.90
59857;DHT22;45733;52.668;6.860;2023-04-02T09:54:34;7.70;99.90
59857;DHT22;45733;52.668;6.860;2023-04-02T09:57:21;7.90;99.90
59857;DHT22;45733;52.668;6.860;2023-04-02T10:00:13;7.20;99.90
59857;DHT22;45733;52.668;6.860;2023-04-02T10:02:42;7.40;99.90
59857;DHT22;45733;52.668;6.860;2023-04-02T10:05:20;7.70;99.90
59857;DHT22;45733;52.668;6.860;2023-04-02T10:07:51;7.80;99.90
59857;DHT22;45733;52.668;6.860;2023-04-02T10:13:19;7.30;99.90
59857;DHT22;45733;52.668;6.860;2023-04-02T10:18:40;8.50;99.90
59857;DHT22;45733;52.668;6.860;2023-04-02T10:21:11;8.40;99.90
59857;DHT22;45733;52.668;6.860;2023-04-02T10:23:38;8.20;99.90
59857;DHT22;45733;52.668;6.860;2023-04-02T10:29:03;8.60;99.90
59857;DHT22;45733;52.668;6.860;2023-04-02T10:34:30;9.10;99.90
59857;DHT22;45733;52.668;6.860;2023-04-02T10:37:06;8.20;99.90
59857;DHT22;45733;52.668;6.860;2023-04-02T10:39:39;9.10;99.90
59857;DHT22;45733;52.668;6.860;2023-04-02T10:42:27;8.50;99.90
59857;DHT22;45733;52.668;6.860;2023-04-02T10:51:02;8.40;99.90
59857;DHT22;45733;52.668;6.860;2023-04-02T10:53:40;8.50;99.90
59857;DHT22;45733;52.668;6.860;2023-04-02T10:56:11;9.00;99.90
59857;DHT22;45733;52.668;6.860;2023-04-02T10:58:57;8.50;99.90
59857;DHT22;45733;52.668;6.860;2023-04-02T11:01:26;8.40;99.90
59857;DHT22;45733;52.668;6.860;2023-04-02T11:04:16;9.10;99.90
59857;DHT22;45733;52.668;6.860;2023-04-02T11:06:50;9.40;99.90
59857;DHT22;45733;52.668;6.860;2023-04-02T11:09:22;9.10;99.90
59857;DHT22;45733;52.668;6.860;2023-04-02T11:11:55;8.50;99.90
59857;DHT22;45733;52.668;6.860;2023-04-02T11:14:28;8.90;99.90
59857;DHT22;45733;52.668;6.860;2023-04-02T11:16:56;8.50;99.90
59857;DHT22;45733;52.668;6.860;2023-04-02T11:22:21;8.90;99.90
59857;DHT22;45733;52.668;6.860;2023-04-02T11:24:47;8.60;99.90
59857;DHT22;45733;52.668;6.860;2023-04-02T11:27:28;9.00;99.90
59857;DHT22;45733;52.668;6.860;2023-04-02T11:30:05;9.50;99.90
59857;DHT22;45733;52.668;6.860;2023-04-02T11:32:39;9.20;99.90
59857;DHT22;45733;52.668;6.860;2023-04-02T11:38:48;9.60;99.90
59857;DHT22;45733;52.668;6.860;2023-04-02T11:46:00;8.80;99.90
59857;DHT22;45733;52.668;6.860;2023-04-02T11:48:34;9.20;99.90
59857;DHT22;45733;52.668;6.860;2023-04-02T11:53:46;9.70;99.90
59857;DHT22;45733;52.668;6.860;2023-04-02T11:59:11;9.40;99.90
59857;DHT22;45733;52.668;6.860;2023-04-02T12:01:53;9.70;99.90
59857;DHT22;45733;52.668;6.860;2023-04-02T12:10:23;9.60;99.90
59857;DHT22;45733;52.668;6.860;2023-04-02T12:12:52;10.00;99.90
59857;DHT22;45733;52.668;6.860;2023-04-02T12:18:03;9.90;99.90
59857;DHT22;45733;52.668;6.860;2023-04-02T12:20:30;10.00;99.90
59857;DHT22;45733;52.668;6.860;2023-04-02T12:22:56;10.50;99.90
59857;DHT22;45733;52.668;6.860;2023-04-02T12:25:29;10.00;99.90
59857;DHT22;45733;52.668;6.860;2023-04-02T12:28:04;10.40;99.90
59857;DHT22;45733;52.668;6.860;2023-04-02T12:30:31;10.10;99.90
59857;DHT22;45733;52.668;6.860;2023-04-02T12:33:34;10.00;99.90
59857;DHT22;45733;52.668;6.860;2023-04-02T12:36:03;10.40;99.90
59857;DHT22;45733;52.668;6.860;2023-04-02T12:38:35;10.80;99.90
59857;DHT22;45733;52.668;6.860;2023-04-02T12:41:24;10.30;99.90
59857;DHT22;45733;52.668;6.860;2023-04-02T12:44:06;9.80;99.90
59857;DHT22;45733;52.668;6.860;2023-04-02T12:46:38;9.90;99.90
59857;DHT22;45733;52.668;6.860;2023-04-02T12:51:53;10.30;99.90
59857;DHT22;45733;52.668;6.860;2023-04-02T12:54:19;9.90;99.90
59857;DHT22;45733;52.668;6.860;2023-04-02T12:56:46;10.30;99.90
59857;DHT22;45733;52.668;6.860;2023-04-02T12:59:34;10.10;99.90
59857;DHT22;45733;52.668;6.860;2023-04-02T13:02:13;10.70;99.90
59857;DHT22;45733;52.668;6.860;2023-04-02T13:07:16;10.30;99.90
59857;DHT22;45733;52.668;6.860;2023-04-02T13:09:49;10.30;99.90
59857;DHT22;45733;52.668;6.860;2023-04-02T13:12:38;10.60;99.90
59857;DHT22;45733;52.668;6.860;2023-04-02T13:15:20;10.60;99.90
59857;DHT22;45733;52.668;6.860;2023-04-02T13:20:40;10.90;99.90
59857;DHT22;45733;52.668;6.860;2023-04-02T13:25:52;10.90;99.90
59857;DHT22;45733;52.668;6.860;2023-04-02T13:28:18;10.90;99.90
59857;DHT22;45733;52.668;6.860;2023-04-02T13:30:44;10.60;99.90
59857;DHT22;45733;52.668;6.860;2023-04-02T13:33:11;11.10;99.90
59857;DHT22;45733;52.668;6.860;2023-04-02T13:35:37;10.90;99.90
59857;DHT22;45733;52.668;6.860;2023-04-02T13:38:02;10.80;99.90
59857;DHT22;45733;52.668;6.860;2023-04-02T13:40:31;10.80;99.90
59857;DHT22;45733;52.668;6.860;2023-04-02T13:42:57;10.70;99.90
59857;DHT22;45733;52.668;6.860;2023-04-02T13:45:32;11.00;99.90
59857;DHT22;45733;52.668;6.860;2023-04-02T13:47:58;11.10;99.90
59857;DHT22;45733;52.668;6.860;2023-04-02T13:50:27;10.90;99.90
59857;DHT22;45733;52.668;6.860;2023-04-02T13:52:56;11.10;99.90
59857;DHT22;45733;52.668;6.860;2023-04-02T13:55:24;11.00;99.90
59857;DHT22;45733;52.668;6.860;2023-04-02T13:57:52;11.30;99.90
59857;DHT22;45733;52.668;6.860;2023-04-02T14:00:18;10.80;99.90
59857;DHT22;45733;52.668;6.860;2023-04-02T14:02:49;11.20;99.90
59857;DHT22;45733;52.668;6.860;2023-04-02T14:08:15;10.90;99.90
59857;DHT22;45733;52.668;6.860;2023-04-02T14:14:21;11.30;99.90
59857;DHT22;45733;52.668;6.860;2023-04-02T14:16:48;11.00;99.90
59857;DHT22;45733;52.668;6.860;2023-04-02T14:35:13;10.90;99.90
59857;DHT22;45733;52.668;6.860;2023-04-02T14:48:23;11.00;99.90
59857;DHT22;45733;52.668;6.860;2023-04-02T14:50:57;11.20;99.90
59857;DHT22;45733;52.668;6.860;2023-04-02T14:53:30;10.90;99.90
59857;DHT22;45733;52.668;6.860;2023-04-02T14:56:00;11.60;99.90
59857;DHT22;45733;52.668;6.860;2023-04-02T14:58:39;11.80;99.90
59857;DHT22;45733;52.668;6.860;2023-04-02T15:01:19;11.60;99.90
59857;DHT22;45733;52.668;6.860;2023-04-02T15:04:10;10.90;99.90
59857;DHT22;45733;52.668;6.860;2023-04-02T15:07:26;10.80;99.90
59857;DHT22;45733;52.668;6.860;2023-04-02T15:12:45;11.10;99.90
59857;DHT22;45733;52.668;6.860;2023-04-02T15:15:35;11.40;99.90
59857;DHT22;45733;52.668;6.860;2023-04-02T15:18:05;11.60;99.90
59857;DHT22;45733;52.668;6.860;2023-04-02T15:20:43;11.40;99.90
59857;DHT22;45733;52.668;6.860;2023-04-02T15:23:26;11.20;99.90
59857;DHT22;45733;52.668;6.860;2023-04-02T15:28:45;11.20;99.90
59857;DHT22;45733;52.668;6.860;2023-04-02T15:31:13;10.80;99.90
59857;DHT22;45733;52.668;6.860;2023-04-02T15:33:44;11.30;99.90
59857;DHT22;45733;52.668;6.860;2023-04-02T15:36:35;11.40;99.90
59857;DHT22;45733;52.668;6.860;2023-04-02T15:39:15;10.70;99.90
59857;DHT22;45733;52.668;6.860;2023-04-02T15:50:43;9.90;99.90
59857;DHT22;45733;52.668;6.860;2023-04-02T15:53:23;10.50;99.90
59857;DHT22;45733;52.668;6.860;2023-04-02T15:58:46;10.70;99.90
59857;DHT22;45733;52.668;6.860;2023-04-02T16:01:34;10.70;99.90
59857;DHT22;45733;52.668;6.860;2023-04-02T16:08:01;10.80;99.90
59857;DHT22;45733;52.668;6.860;2023-04-02T16:10:27;10.80;99.90
59857;DHT22;45733;52.668;6.860;2023-04-02T16:12:56;10.50;99.90
59857;DHT22;45733;52.668;6.860;2023-04-02T16:15:26;10.80;99.90
59857;DHT22;45733;52.668;6.860;2023-04-02T16:18:08;10.60;99.90
59857;DHT22;45733;52.668;6.860;2023-04-02T16:20:44;10.90;99.90
59857;DHT22;45733;52.668;6.860;2023-04-02T16:23:15;11.30;99.90
59857;DHT22;45733;52.668;6.860;2023-04-02T16:31:53;10.70;99.90
59857;DHT22;45733;52.668;6.860;2023-04-02T16:39:51;10.20;99.90
59857;DHT22;45733;52.668;6.860;2023-04-02T16:54:34;10.10;99.90
59857;DHT22;45733;52.668;6.860;2023-04-02T16:57:22;10.00;99.90
59857;DHT22;45733;52.668;6.860;2023-04-02T17:13:45;9.70;99.90
59857;DHT22;45733;52.668;6.860;2023-04-02T17:16:18;9.60;99.90
59857;DHT22;45733;52.668;6.860;2023-04-02T17:18:51;9.50;99.90
59857;DHT22;45733;52.668;6.860;2023-04-02T17:21:24;9.40;99.90
59857;DHT22;45733;52.668;6.860;2023-04-02T17:24:04;9.40;99.90
59857;DHT22;45733;52.668;6.860;2023-04-02T17:26:33;9.40;99.90
59857;DHT22;45733;52.668;6.860;2023-04-02T17:29:06;9.30;99.90
59857;DHT22;45733;52.668;6.860;2023-04-02T17:31:32;9.10;99.90
59857;DHT22;45733;52.668;6.860;2023-04-02T17:34:11;9.20;99.90
59857;DHT22;45733;52.668;6.860;2023-04-02T17:45:12;8.80;99.90
59857;DHT22;45733;52.668;6.860;2023-04-02T18:01:45;8.50;99.90
59857;DHT22;45733;52.668;6.860;2023-04-02T18:04:30;8.30;99.90
59857;DHT22;45733;52.668;6.860;2023-04-02T18:07:30;8.20;99.90
59857;DHT22;45733;52.668;6.860;2023-04-02T18:20:46;7.70;99.90
59857;DHT22;45733;52.668;6.860;2023-04-02T18:23:35;7.50;99.90
59857;DHT22;45733;52.668;6.860;2023-04-02T18:29:04;7.30;99.90
59857;DHT22;45733;52.668;6.860;2023-04-02T18:40:25;6.80;99.90
59857;DHT22;45733;52.668;6.860;2023-04-02T18:43:18;6.70;99.90
59857;DHT22;45733;52.668;6.860;2023-04-02T18:48:56;6.60;99.90
59857;DHT22;45733;52.668;6.860;2023-04-02T18:51:25;6.40;99.90
59857;DHT22;45733;52.668;6.860;2023-04-02T18:54:03;6.50;99.90
59857;DHT22;45733;52.668;6.860;2023-04-02T18:56:37;6.50;99.90
59857;DHT22;45733;52.668;6.860;2023-04-02T18:59:20;6.40;99.90
59857;DHT22;45733;52.668;6.860;2023-04-02T19:01:51;6.30;99.90
59857;DHT22;45733;52.668;6.860;2023-04-02T19:04:41;6.20;99.90
59857;DHT22;45733;52.668;6.860;2023-04-02T19:07:14;6.40;99.90
59857;DHT22;45733;52.668;6.860;2023-04-02T19:09:43;6.40;99.90
59857;DHT22;45733;52.668;6.860;2023-04-02T19:12:16;6.30;99.90
59857;DHT22;45733;52.668;6.860;2023-04-02T19:14:43;6.30;99.90
59857;DHT22;45733;52.668;6.860;2023-04-02T19:17:16;6.30;99.90
59857;DHT22;45733;52.668;6.860;2023-04-02T19:38:47;5.70;99.90
59857;DHT22;45733;52.668;6.860;2023-04-02T19:41:49;5.70;99.90
59857;DHT22;45733;52.668;6.860;2023-04-02T19:44:17;5.60;99.90
59857;DHT22;45733;52.668;6.860;2023-04-02T19:46:43;5.60;99.90
59857;DHT22;45733;52.668;6.860;2023-04-02T19:51:50;5.60;99.90
59857;DHT22;45733;52.668;6.860;2023-04-02T19:54:16;5.70;99.90
59857;DHT22;45733;52.668;6.860;2023-04-02T19:56:42;5.60;99.90
59857;DHT22;45733;52.668;6.860;2023-04-02T19:59:09;5.50;99.90
59857;DHT22;45733;52.668;6.860;2023-04-02T20:01:36;5.40;99.90
59857;DHT22;45733;52.668;6.860;2023-04-02T20:04:01;5.40;99.90
59857;DHT22;45733;52.668;6.860;2023-04-02T20:06:28;5.30;99.90
59857;DHT22;45733;52.668;6.860;2023-04-02T20:08:56;5.20;99.90
59857;DHT22;45733;52.668;6.860;2023-04-02T20:11:23;5.10;99.90
59857;DHT22;45733;52.668;6.860;2023-04-02T20:13:49;5.10;99.90
59857;DHT22;45733;52.668;6.860;2023-04-02T20:16:15;5.10;99.90
59857;DHT22;45733;52.668;6.860;2023-04-02T20:18:41;5.00;99.90
59857;DHT22;45733;52.668;6.860;2023-04-02T20:21:07;5.10;99.90
59857;DHT22;45733;52.668;6.860;2023-04-02T20:23:34;5.00;99.90
59857;DHT22;45733;52.668;6.860;2023-04-02T20:26:00;4.90;99.90
59857;DHT22;45733;52.668;6.860;2023-04-02T20:28:27;4.80;99.90
59857;DHT22;45733;52.668;6.860;2023-04-02T20:30:54;4.90;99.90
59857;DHT22;45733;52.668;6.860;2023-04-02T20:33:29;4.80;99.90
59857;DHT22;45733;52.668;6.860;2023-04-02T20:36:02;4.80;99.90
59857;DHT22;45733;52.668;6.860;2023-04-02T20:38:29;4.70;99.90
59857;DHT22;45733;52.668;6.860;2023-04-02T20:40:55;4.60;99.90
59857;DHT22;45733;52.668;6.860;2023-04-02T20:43:21;4.60;99.90
59857;DHT22;45733;52.668;6.860;2023-04-02T20:45:58;4.60;99.90
59857;DHT22;45733;52.668;6.860;2023-04-02T20:48:26;4.60;99.90
59857;DHT22;45733;52.668;6.860;2023-04-02T20:50:55;4.50;99.90
59857;DHT22;45733;52.668;6.860;2023-04-02T20:53:32;4.40;99.90
59857;DHT22;45733;52.668;6.860;2023-04-02T20:56:04;4.30;99.90
59857;DHT22;45733;52.668;6.860;2023-04-02T20:58:31;4.30;99.90
59857;DHT22;45733;52.668;6.860;2023-04-02T21:01:19;4.30;99.90
59857;DHT22;45733;52.668;6.860;2023-04-02T21:03:46;4.10;99.90
59857;DHT22;45733;52.668;6.860;2023-04-02T21:06:18;4.10;99.90
59857;DHT22;45733;52.668;6.860;2023-04-02T21:08:44;4.10;99.90
59857;DHT22;45733;52.668;6.860;2023-04-02T21:11:10;4.10;99.90
59857;DHT22;45733;52.668;6.860;2023-04-02T21:13:36;4.00;99.90
59857;DHT22;45733;52.668;6.860;2023-04-02T21:16:04;3.90;99.90
59857;DHT22;45733;52.668;6.860;2023-04-02T21:18:34;3.90;99.90